Hindostan Falls, Indiana
Current Conditions -  °F | °C
As of 7:15 PM on Sunday 23 Nov 2014 (Local Time) from KDCY Reporting Station
Light Rain Light Rain  
Wind Chill: 55°   Ceiling: 800
Heat Index: 55°   Visibility: 7mi
Dew Point: 55°   Wind: 18mph
Humidity: 100%   Direction: 150°SSE
Pressure: 29.24"   Gusts: 23mph
Location:  38.6262°N, 86.7615°W
Report Text: KDCY 240115Z AUTO 15016G20KT 7SM -RA OVC008 13/13 A2924 RMK AO2 T01300130
Loading
Personal Weather Stations






























Interactive Weather Map New forecast layout! Learn more

10-Day Weather Forecast

Advertisements
Track Severe Weather on mobile